Time;durP1;ratioP1;P1;durP2;ratioP2;P2;SDS_P1;SDS_P2;PMS_P1;PMS_P2;Temp;Humidity;BMP_temperature;BMP_pressure;BME280_temperature;BME280_humidity;BME280_pressure;Samples;Min_cycle;Max_cycle;Signal;HPM_P1;HPM_P2
2022/01/28 00:00:07;;;;;;;42.53;37.95;;;;;;;-2.52;64.36;95366.69;5118219;28;20203;-62
2022/01/28 00:02:49;;;;;;;62.65;49.60;;;;;;;-2.72;63.00;95372.03;5118182;28;20202;-62
2022/01/28 00:05:19;;;;;;;61.53;48.38;;;;;;;-2.91;63.21;95374.31;5100295;28;20211;-62
2022/01/28 00:07:47;;;;;;;51.30;43.60;;;;;;;-3.07;62.86;95372.59;5118246;28;20196;-62
2022/01/28 00:10:14;;;;;;;50.63;42.08;;;;;;;-3.13;63.17;95366.34;5099998;28;20210;-62
2022/01/28 00:13:00;;;;;;;50.85;44.33;;;;;;;-3.10;63.34;95373.13;5118158;28;20196;-62
2022/01/28 00:15:32;;;;;;;54.75;46.78;;;;;;;-3.12;63.55;95364.47;5118111;28;20206;-62
2022/01/28 00:21:07;;;;;;;53.65;45.05;;;;;;;-3.08;63.86;95366.41;5137007;27;20211;-62
2022/01/28 00:37:26;;;;;;;49.85;43.40;;;;;;;-2.95;64.04;95355.13;5138057;27;20183;-63
2022/01/28 00:39:54;;;;;;;53.17;44.28;;;;;;;-2.97;64.22;95351.91;5119925;27;20211;-62
2022/01/28 00:42:21;;;;;;;49.63;42.92;;;;;;;-3.03;63.65;95342.13;5120519;27;20191;-62
2022/01/28 00:44:47;;;;;;;45.05;40.38;;;;;;;-3.00;64.39;95338.13;5138120;27;20183;-62
2022/01/28 00:47:14;;;;;;;60.40;48.28;;;;;;;-3.09;63.49;95345.06;5137878;27;20222;-62
2022/01/28 00:49:41;;;;;;;73.22;51.08;;;;;;;-3.29;63.22;95346.56;5137704;27;20206;-62
2022/01/28 00:52:08;;;;;;;66.00;48.90;;;;;;;-3.34;64.20;95351.94;5119934;27;20264;-62
2022/01/28 00:54:34;;;;;;;62.97;48.97;;;;;;;-3.39;64.00;95346.47;5138378;27;20195;-62
2022/01/28 00:57:03;;;;;;;65.53;48.28;;;;;;;-3.47;64.23;95336.19;5137861;27;20195;-62
2022/01/28 00:59:29;;;;;;;67.03;49.92;;;;;;;-3.46;64.04;95338.59;5137715;27;20225;-63
2022/01/28 01:01:56;;;;;;;68.43;47.95;;;;;;;-3.43;64.64;95332.69;5137321;27;20490;-62
2022/01/28 01:04:24;;;;;;;59.58;46.28;;;;;;;-3.35;64.58;95334.09;5137378;27;20198;-62
2022/01/28 01:06:51;;;;;;;53.53;44.47;;;;;;;-3.31;64.32;95331.69;5137635;27;20195;-62
2022/01/28 01:09:18;;;;;;;58.80;46.33;;;;;;;-3.35;63.81;95334.09;5119761;27;20534;-62
2022/01/28 01:11:45;;;;;;;56.33;46.60;;;;;;;-3.34;64.20;95322.25;5137543;27;20187;-62
2022/01/28 01:14:13;;;;;;;60.97;46.45;;;;;;;-3.38;64.02;95329.22;5136640;27;20218;-62
2022/01/28 01:16:56;;;;;;;57.90;47.13;;;;;;;-3.42;63.99;95317.31;5119349;27;20237;-62
2022/01/28 01:19:25;;;;;;;55.05;44.92;;;;;;;-3.51;64.18;95311.59;5119446;27;20221;-63
2022/01/28 01:21:56;;;;;;;56.45;45.67;;;;;;;-3.47;64.71;95309.22;5119311;27;20295;-62
2022/01/28 01:24:25;;;;;;;59.47;46.30;;;;;;;-3.48;64.51;95307.59;5137307;27;20219;-62
2022/01/28 01:26:51;;;;;;;67.18;49.25;;;;;;;-3.63;63.59;95297.50;5119609;27;20259;-62
2022/01/28 01:29:22;;;;;;;79.30;52.92;;;;;;;-3.78;63.47;95286.59;5119265;27;20194;-62
2022/01/28 01:31:49;;;;;;;71.70;52.15;;;;;;;-3.83;64.14;95295.44;5137267;27;20183;-62
2022/01/28 01:34:19;;;;;;;69.43;51.00;;;;;;;-3.83;64.58;95287.38;5137235;27;20191;-62
2022/01/28 01:36:46;;;;;;;71.43;51.30;;;;;;;-3.78;65.33;95289.28;5119082;27;20302;-62
2022/01/28 01:39:15;;;;;;;61.22;48.55;;;;;;;-3.72;64.90;95289.06;5119018;27;20198;-62
2022/01/28 01:41:46;;;;;;;56.92;46.90;;;;;;;-3.69;65.00;95279.66;5136720;27;20191;-62
2022/01/28 01:44:22;;;;;;;58.63;45.90;;;;;;;-3.65;65.25;95276.19;5136960;27;20210;-62
2022/01/28 01:52:27;;;;;;;57.88;44.92;;;;;;;-3.49;65.37;95277.09;5091756;28;20196;-64
2022/01/28 01:54:54;;;;;;;56.03;46.03;;;;;;;-3.46;65.28;95263.09;5092575;28;20188;-64
2022/01/28 01:57:21;;;;;;;63.67;50.60;;;;;;;-3.49;65.05;95262.81;5091806;28;20196;-64
2022/01/28 01:59:48;;;;;;;64.20;50.05;;;;;;;-3.47;64.84;95266.06;5091515;28;20199;-64
2022/01/28 02:02:15;;;;;;;69.63;53.30;;;;;;;-3.53;64.80;95269.78;5091795;28;20201;-64
2022/01/28 02:04:43;;;;;;;76.97;53.42;;;;;;;-3.61;64.83;95264.88;5092393;28;20181;-64
2022/01/28 02:07:10;;;;;;;65.38;51.03;;;;;;;-3.64;65.19;95274.28;5091535;28;20203;-64
2022/01/28 02:09:36;;;;;;;56.40;47.78;;;;;;;-3.63;65.70;95263.25;5091982;28;20200;-64
2022/01/28 02:12:04;;;;;;;52.20;46.35;;;;;;;-3.57;65.68;95250.63;5092285;28;20185;-64
2022/01/28 02:14:30;;;;;;;65.38;49.97;;;;;;;-3.54;65.59;95250.09;5092294;28;20180;-63
2022/01/28 02:16:57;;;;;;;55.35;47.25;;;;;;;-3.55;65.56;95244.97;5091250;28;20609;-63
2022/01/28 02:19:24;;;;;;;53.25;45.90;;;;;;;-3.57;65.88;95247.91;5092217;28;20234;-63
2022/01/28 02:21:53;;;;;;;58.08;46.75;;;;;;;-3.62;65.02;95245.22;5092106;28;20185;-63
2022/01/28 02:24:25;;;;;;;66.20;53.55;;;;;;;-3.77;64.05;95245.91;5091118;28;20228;-63
2022/01/28 02:26:52;;;;;;;98.88;65.57;;;;;;;-3.98;63.57;95244.13;5092037;28;20200;-64
2022/01/28 02:29:27;;;;;;;88.78;60.55;;;;;;;-4.01;64.14;95236.56;5091063;28;20208;-64
2022/01/28 02:31:55;;;;;;;72.75;55.35;;;;;;;-3.97;64.93;95235.78;5090662;28;20245;-63
2022/01/28 02:34:22;;;;;;;78.20;58.58;;;;;;;-3.93;64.41;95234.19;5092271;28;20191;-63
2022/01/28 02:36:49;;;;;;;71.47;54.70;;;;;;;-3.93;64.41;95238.75;5091562;28;20645;-63
2022/01/28 02:39:17;;;;;;;70.15;54.20;;;;;;;-3.95;65.02;95244.44;5091778;28;20234;-64
2022/01/28 02:41:47;;;;;;;71.30;52.33;;;;;;;-3.89;65.32;95243.38;5090901;28;20205;-64
2022/01/28 02:44:20;;;;;;;52.63;46.10;;;;;;;-3.80;65.31;95246.41;5090847;28;20578;-64
2022/01/28 02:46:56;;;;;;;51.03;45.70;;;;;;;-3.74;64.87;95242.72;5091668;28;20220;-64
2022/01/28 02:49:26;;;;;;;48.70;43.53;;;;;;;-3.79;64.81;95237.25;5091032;28;20724;-64
2022/01/28 02:51:53;;;;;;;48.45;43.42;;;;;;;-3.72;65.54;95242.44;5091530;28;20201;-64
2022/01/28 02:54:21;;;;;;;45.75;41.22;;;;;;;-3.69;65.33;95231.94;5091577;28;20185;-64
2022/01/28 02:56:49;;;;;;;51.97;43.42;;;;;;;-3.69;64.81;95237.34;5090706;28;20211;-64
2022/01/28 02:59:16;;;;;;;52.38;45.47;;;;;;;-3.75;64.51;95235.66;5087309;28;20201;-64
2022/01/28 03:01:43;;;;;;;54.35;45.28;;;;;;;-3.79;64.78;95233.75;5077025;28;20205;-63
2022/01/28 03:04:15;;;;;;;61.45;48.17;;;;;;;-3.87;63.67;95235.06;5077846;28;20196;-63
2022/01/28 03:06:42;;;;;;;68.35;50.20;;;;;;;-4.02;63.83;95221.47;5076807;28;20556;-63
2022/01/28 03:09:18;;;;;;;68.03;49.30;;;;;;;-4.07;63.78;95216.81;5077605;28;20212;-63
2022/01/28 03:11:58;;;;;;;71.68;50.17;;;;;;;-4.06;64.46;95209.59;5077406;28;20290;-63
2022/01/28 03:14:36;;;;;;;68.30;49.28;;;;;;;-4.05;64.34;95213.91;5077665;28;20185;-63
2022/01/28 03:17:12;;;;;;;65.68;47.70;;;;;;;-4.09;65.06;95208.22;5077262;28;20601;-63
2022/01/28 03:19:46;;;;;;;61.40;46.47;;;;;;;-4.15;64.49;95203.84;5076703;28;20228;-63
2022/01/28 03:22:13;;;;;;;61.65;47.75;;;;;;;-4.09;64.68;95208.22;5077209;28;20268;-63
2022/01/28 03:24:41;;;;;;;57.15;44.17;;;;;;;-4.13;64.72;95210.59;5077129;28;20535;-63
2022/01/28 03:27:17;;;;;;;47.15;40.85;;;;;;;-4.17;65.29;95204.09;5077498;28;20232;-64
2022/01/28 03:29:44;;;;;;;41.60;37.33;;;;;;;-4.06;65.51;95202.31;5110218;28;20217;-64
2022/01/28 03:32:11;;;;;;;39.40;35.25;;;;;;;-4.01;65.36;95196.94;5076721;28;20196;-64
2022/01/28 03:34:38;;;;;;;50.47;42.50;;;;;;;-4.03;65.23;95190.19;5077011;28;20185;-64
2022/01/28 03:37:07;;;;;;;50.72;43.15;;;;;;;-3.99;64.72;95181.34;5076342;28;20197;-63
2022/01/28 03:39:35;;;;;;;48.85;42.42;;;;;;;-4.09;64.51;95172.38;5076881;28;20239;-63
2022/01/28 03:42:02;;;;;;;47.75;41.72;;;;;;;-4.14;64.47;95184.75;5076801;28;20193;-63
2022/01/28 03:44:30;;;;;;;43.30;38.73;;;;;;;-4.13;64.53;95189.06;5077326;28;20185;-63
2022/01/28 03:46:57;;;;;;;39.08;35.05;;;;;;;-4.14;64.72;95173.97;5076995;28;20189;-63
2022/01/28 03:49:24;;;;;;;46.70;41.60;;;;;;;-4.28;64.63;95167.41;5076833;28;20244;-63
2022/01/28 03:51:50;;;;;;;41.13;36.90;;;;;;;-4.35;64.73;95172.19;5076018;28;20201;-63
2022/01/28 03:54:17;;;;;;;44.13;39.40;;;;;;;-4.33;64.90;95170.03;5076006;28;20197;-63
2022/01/28 03:56:44;;;;;;;41.47;37.03;;;;;;;-4.29;64.76;95179.22;5076581;28;20178;-63
2022/01/28 03:59:10;;;;;;;42.27;37.77;;;;;;;-4.24;65.23;95173.88;5075606;28;20197;-63
2022/01/28 04:01:40;;;;;;;41.07;36.93;;;;;;;-4.23;64.85;95159.34;5076656;28;20192;-63
2022/01/28 04:12:19;;;;;;;37.70;33.90;;;;;;;-4.08;65.57;95150.56;5075793;28;20266;-63
2022/01/28 04:15:00;;;;;;;37.88;33.97;;;;;;;-4.05;65.34;95141.16;5076430;28;20192;-63
2022/01/28 04:17:28;;;;;;;38.60;34.70;;;;;;;-3.98;65.06;95157.91;5075178;28;20218;-63
2022/01/28 04:19:55;;;;;;;35.08;31.77;;;;;;;-3.95;65.13;95160.09;5076111;28;20184;-63
2022/01/28 04:22:22;;;;;;;35.63;32.22;;;;;;;-3.93;64.92;95166.81;5076092;28;20178;-63
2022/01/28 04:24:49;;;;;;;32.47;29.27;;;;;;;-3.95;64.79;95168.97;5075306;28;20204;-63
2022/01/28 04:27:16;;;;;;;34.33;30.95;;;;;;;-3.94;64.72;95181.38;5075961;28;20185;-63
2022/01/28 04:29:44;;;;;;;37.30;33.58;;;;;;;-3.97;65.10;95176.50;5075154;28;20291;-63
2022/01/28 04:32:12;;;;;;;40.15;36.15;;;;;;;-3.97;65.22;95178.38;5075799;28;20201;-64
2022/01/28 04:34:40;;;;;;;34.60;31.27;;;;;;;-4.06;64.14;95171.88;5076036;28;20200;-64
2022/01/28 04:37:16;;;;;;;37.95;34.45;;;;;;;-4.17;64.88;95173.66;5076055;28;20185;-64
2022/01/28 04:39:49;;;;;;;37.15;33.33;;;;;;;-4.18;64.98;95162.06;5076060;28;20172;-64
2022/01/28 04:42:34;;;;;;;38.10;34.22;;;;;;;-4.20;64.56;95161.53;5076305;28;20185;-64
2022/01/28 04:45:08;;;;;;;36.97;33.47;;;;;;;-4.42;63.99;95166.19;5074784;28;20621;-64
2022/01/28 04:47:42;;;;;;;37.17;33.55;;;;;;;-4.49;64.76;95174.47;5075390;28;20596;-64
2022/01/28 04:50:19;;;;;;;36.28;32.65;;;;;;;-4.43;65.48;95164.56;5075747;28;20213;-64
2022/01/28 04:53:04;;;;;;;35.50;31.92;;;;;;;-4.44;65.54;95173.72;5075760;28;20188;-64
2022/01/28 04:56:00;;;;;;;37.00;33.45;;;;;;;-4.42;65.03;95188.53;5074789;28;20282;-64
2022/01/28 04:58:41;;;;;;;34.88;31.58;;;;;;;-4.46;64.83;95179.34;5075334;28;20517;-64
2022/01/28 05:01:29;;;;;;;34.88;31.48;;;;;;;-4.41;65.14;95181.28;5074626;28;20201;-63
2022/01/28 05:04:10;;;;;;;28.13;25.08;;;;;;;-4.30;65.84;95191.06;5075600;28;20209;-64
2022/01/28 05:07:08;;;;;;;29.52;25.92;;;;;;;-4.15;65.91;95185.78;5075485;28;20208;-64
2022/01/28 05:12:58;;;;;;;34.30;30.67;;;;;;;-4.14;64.69;95179.34;5075689;28;20196;-64
2022/01/28 05:15:49;;;;;;;34.20;30.60;;;;;;;-4.21;64.43;95176.06;5075476;28;20284;-64
2022/01/28 05:26:38;;;;;;;44.42;40.13;;;;;;;-4.48;64.16;95177.97;5027532;28;20660;-64
2022/01/28 05:29:05;;;;;;;45.70;41.28;;;;;;;-4.48;64.35;95186.88;5074900;28;20303;-64
2022/01/28 05:31:32;;;;;;;42.60;38.58;;;;;;;-4.48;64.58;95183.38;5074859;28;20185;-64
2022/01/28 05:33:58;;;;;;;40.33;36.30;;;;;;;-4.44;64.84;95192.56;5074170;28;20197;-64
2022/01/28 05:36:26;;;;;;;36.90;33.30;;;;;;;-4.37;65.10;95195.84;5075326;28;20193;-64
2022/01/28 05:38:54;;;;;;;39.22;35.55;;;;;;;-4.38;65.15;95186.16;5075179;28;20211;-64
2022/01/28 05:41:21;;;;;;;36.28;32.63;;;;;;;-4.37;65.44;95191.28;5075043;28;20554;-64
2022/01/28 05:43:48;;;;;;;35.08;31.48;;;;;;;-4.32;65.46;95195.91;5074381;28;20529;-64
2022/01/28 05:46:17;;;;;;;35.35;31.80;;;;;;;-4.25;65.34;95195.66;5075203;28;20212;-64
2022/01/28 05:48:43;;;;;;;34.85;31.38;;;;;;;-4.20;65.25;95193.03;5073821;28;20243;-64
2022/01/28 05:51:11;;;;;;;33.83;30.48;;;;;;;-4.20;64.85;95193.03;5075110;28;20185;-64
2022/01/28 05:53:38;;;;;;;34.38;31.02;;;;;;;-4.15;65.36;95191.19;5074188;28;20204;-64
2022/01/28 05:56:06;;;;;;;33.85;30.45;;;;;;;-4.11;65.10;95188.78;5074916;28;20280;-64
2022/01/28 05:58:33;;;;;;;35.00;31.70;;;;;;;-4.10;64.79;95190.44;5074642;28;20599;-64
2022/01/28 06:01:00;;;;;;;35.55;31.77;;;;;;;-4.17;64.42;95189.84;5074887;28;20192;-64
2022/01/28 06:03:27;;;;;;;39.17;35.38;;;;;;;-4.22;64.96;95198.66;5073981;28;20324;-64
2022/01/28 06:05:54;;;;;;;38.47;34.72;;;;;;;-4.28;64.82;95191.63;5073583;28;20205;-64
2022/01/28 06:08:21;;;;;;;39.40;35.50;;;;;;;-4.34;63.86;95189.94;5074915;28;20189;-64
2022/01/28 06:10:47;;;;;;;39.60;35.58;;;;;;;-4.38;64.12;95202.31;5074672;28;20213;-64
2022/01/28 06:13:16;;;;;;;38.80;35.17;;;;;;;-4.38;64.34;95207.69;5074235;28;20204;-64
2022/01/28 06:15:43;;;;;;;37.28;33.67;;;;;;;-4.33;64.32;95213.13;5073993;28;20196;-63
2022/01/28 06:18:10;;;;;;;37.58;33.83;;;;;;;-4.26;64.25;95213.72;5074794;28;20208;-63
2022/01/28 06:20:37;;;;;;;37.17;33.55;;;;;;;-4.26;64.96;95215.59;5073460;28;20417;-64
2022/01/28 06:23:05;;;;;;;33.70;30.35;;;;;;;-4.21;65.28;95221.84;5073480;28;20551;-64
2022/01/28 06:25:32;;;;;;;35.70;32.13;;;;;;;-4.08;65.37;95223.28;5074891;28;20193;-64
2022/01/28 06:27:58;;;;;;;34.45;30.83;;;;;;;-3.95;65.40;95224.75;5073357;28;20617;-64
2022/01/28 06:30:27;;;;;;;36.05;32.55;;;;;;;-3.89;65.36;95227.22;5074546;28;20217;-63
2022/01/28 06:32:54;;;;;;;60.83;55.80;;;;;;;-3.83;65.24;95233.47;5073431;28;20197;-64
2022/01/28 06:35:21;;;;;;;38.75;34.97;;;;;;;-3.79;64.63;95236.44;5076852;28;20613;-64
2022/01/28 06:37:48;;;;;;;38.67;34.97;;;;;;;-3.87;64.25;95229.66;5078652;28;20207;-64
2022/01/28 06:40:16;;;;;;;40.40;36.35;;;;;;;-3.87;64.79;95230.47;5077327;28;20220;-64
2022/01/28 06:42:43;;;;;;;38.13;34.10;;;;;;;-3.75;65.25;95227.56;5077787;28;20196;-64
2022/01/28 06:45:11;;;;;;;38.17;34.33;;;;;;;-3.64;65.54;95215.78;5077293;28;20185;-64
2022/01/28 06:47:39;;;;;;;37.03;33.50;;;;;;;-3.56;65.55;95219.06;5078104;28;20229;-62
2022/01/28 06:50:07;;;;;;;35.92;32.45;;;;;;;-3.47;65.06;95210.25;5077866;28;20630;-64
2022/01/28 06:52:34;;;;;;;40.72;36.75;;;;;;;-3.38;64.97;95215.94;5077843;28;20191;-64
2022/01/28 06:55:02;;;;;;;39.95;36.15;;;;;;;-3.33;65.13;95218.69;5078266;28;20173;-64
2022/01/28 06:57:29;;;;;;;41.95;38.05;;;;;;;-3.26;64.85;95229.25;5077278;28;20447;-63
2022/01/28 06:59:55;;;;;;;40.67;36.58;;;;;;;-3.19;64.97;95232.50;5076995;28;20201;-64
2022/01/28 07:02:22;;;;;;;43.58;39.30;;;;;;;-3.12;64.83;95225.00;5077907;28;20182;-64
2022/01/28 07:04:50;;;;;;;44.03;39.72;;;;;;;-3.04;64.55;95237.97;5076707;28;20196;-63
2022/01/28 07:07:19;;;;;;;43.42;39.13;;;;;;;-2.97;64.78;95233.16;5077875;28;20561;-64
2022/01/28 07:09:48;;;;;;;42.63;38.58;;;;;;;-2.86;64.64;95238.59;5076927;28;20637;-64
2022/01/28 07:12:15;;;;;;;39.53;35.63;;;;;;;-2.75;64.73;95245.66;5077967;28;20181;-64
2022/01/28 07:14:41;;;;;;;41.90;37.90;;;;;;;-2.62;64.46;95249.72;5077778;28;20189;-64
2022/01/28 07:17:08;;;;;;;41.38;37.47;;;;;;;-2.51;64.16;95246.78;5077111;28;20212;-64
2022/01/28 07:19:35;;;;;;;42.40;38.10;;;;;;;-2.42;64.23;95241.69;5077279;28;20521;-64
2022/01/28 07:22:04;;;;;;;34.97;31.38;;;;;;;-2.24;64.32;95237.66;5077482;28;20200;-63
2022/01/28 07:24:31;;;;;;;37.70;34.00;;;;;;;-2.01;64.03;95247.16;5078346;28;20182;-64
2022/01/28 07:26:57;;;;;;;34.65;31.35;;;;;;;-1.91;63.53;95252.56;5077164;28;20217;-64
2022/01/28 07:29:28;;;;;;;33.95;30.77;;;;;;;-1.86;63.54;95252.56;5076655;28;20649;-64
2022/01/28 07:31:55;;;;;;;34.30;31.02;;;;;;;-1.75;63.85;95237.13;5076536;28;20598;-64
2022/01/28 07:34:22;;;;;;;31.15;27.95;;;;;;;-1.59;63.53;95251.47;5077493;28;20185;-64
2022/01/28 07:36:48;;;;;;;24.73;21.98;;;;;;;-1.41;62.60;95248.22;5076596;28;20209;-64
2022/01/28 07:39:17;;;;;;;24.45;21.00;;;;;;;-1.19;62.05;95250.59;5076517;28;20208;-63
2022/01/28 07:41:44;;;;;;;25.20;21.95;;;;;;;-0.95;62.10;95260.81;5110092;28;20199;-63
2022/01/28 07:44:11;;;;;;;79.88;73.57;;;;;;;-0.81;61.79;95261.84;5077253;28;20187;-63
2022/01/28 07:46:38;;;;;;;29.80;26.60;;;;;;;-0.66;60.93;95264.50;5076959;28;20205;-63
2022/01/28 07:49:06;;;;;;;29.20;26.00;;;;;;;-0.53;60.14;95260.41;5076427;28;20653;-64
2022/01/28 07:51:35;;;;;;;32.08;25.05;;;;;;;-0.39;60.24;95268.72;5076243;28;20200;-64
2022/01/28 07:54:02;;;;;;;28.85;24.63;;;;;;;-0.27;59.99;95269.19;5076989;28;20189;-63
2022/01/28 07:56:31;;;;;;;23.95;20.95;;;;;;;-0.18;58.73;95272.97;5077160;28;20192;-63
2022/01/28 07:58:58;;;;;;;22.63;19.63;;;;;;;-0.06;58.71;95281.56;5076810;28;20586;-63
2022/01/28 08:01:24;;;;;;;22.95;19.52;;;;;;;0.02;57.90;95276.63;5076919;28;20185;-64
2022/01/28 08:03:51;;;;;;;22.25;20.05;;;;;;;0.21;57.73;95274.84;5076715;28;20181;-63
2022/01/28 08:06:18;;;;;;;24.30;20.83;;;;;;;0.46;58.12;95274.66;5076823;28;20185;-63
2022/01/28 08:08:45;;;;;;;23.98;21.45;;;;;;;0.61;57.51;95268.28;5076163;28;20292;-64
2022/01/28 08:11:12;;;;;;;25.40;21.92;;;;;;;0.77;56.76;95270.88;5075881;28;20213;-63
2022/01/28 08:13:40;;;;;;;24.15;21.40;;;;;;;0.98;57.44;95261.44;5076602;28;20189;-64
2022/01/28 08:16:06;;;;;;;23.25;20.83;;;;;;;1.14;56.25;95251.22;5076570;28;20193;-63
2022/01/28 08:18:33;;;;;;;23.75;20.90;;;;;;;1.33;56.09;95237.69;5076412;28;20196;-63
2022/01/28 08:21:00;;;;;;;23.50;21.10;;;;;;;1.43;55.27;95222.06;5076055;28;20196;-63
2022/01/28 08:23:27;;;;;;;22.92;20.60;;;;;;;1.39;54.77;95220.22;5075985;28;20222;-63
2022/01/28 08:25:55;;;;;;;23.45;21.17;;;;;;;1.44;54.80;95212.78;5076223;28;20200;-64
2022/01/28 08:28:22;;;;;;;23.75;21.25;;;;;;;1.53;54.69;95210.25;5076134;28;20200;-64
2022/01/28 08:30:50;;;;;;;25.55;22.63;;;;;;;1.68;55.11;95217.38;5076039;28;20209;-64
2022/01/28 08:33:17;;;;;;;24.85;21.50;;;;;;;1.79;55.39;95221.59;5075292;28;20617;-64
2022/01/28 08:35:50;;;;;;;24.73;22.23;;;;;;;1.81;54.55;95229.44;5075913;28;20199;-64
2022/01/28 08:38:24;;;;;;;27.15;21.15;;;;;;;1.86;54.60;95232.09;5076047;28;20231;-63
2022/01/28 08:40:52;;;;;;;28.13;23.52;;;;;;;2.06;54.71;95233.69;5075164;28;20201;-64
2022/01/28 08:43:18;;;;;;;32.47;27.58;;;;;;;2.08;54.41;95224.16;5076079;28;20223;-64
2022/01/28 08:45:45;;;;;;;33.38;29.85;;;;;;;2.03;53.78;95231.56;5075114;28;20242;-63
2022/01/28 08:48:13;;;;;;;34.40;30.80;;;;;;;1.89;54.42;95229.59;5075487;28;20679;-62
2022/01/28 08:50:40;;;;;;;40.45;35.78;;;;;;;1.80;54.43;95231.34;5075729;28;20205;-63
2022/01/28 08:53:07;;;;;;;41.60;37.17;;;;;;;1.89;54.97;95240.47;5075493;28;20220;-63
2022/01/28 08:55:34;;;;;;;45.20;40.42;;;;;;;2.05;54.62;95242.97;5074887;28;20197;-63
2022/01/28 08:58:01;;;;;;;45.20;40.42;;;;;;;2.20;53.55;95237.31;5076097;28;20184;-63
2022/01/28 09:00:27;;;;;;;40.65;36.20;;;;;;;2.31;53.59;95246.91;5076097;28;20189;-63
2022/01/28 09:02:54;;;;;;;41.83;37.15;;;;;;;2.57;53.66;95246.50;5075704;28;20500;-63
2022/01/28 09:05:22;;;;;;;42.78;37.28;;;;;;;2.76;53.08;95252.75;5075823;28;20204;-63
2022/01/28 09:07:50;;;;;;;46.08;41.10;;;;;;;2.99;52.84;95250.16;5075423;28;20189;-63
2022/01/28 09:10:19;;;;;;;42.08;37.58;;;;;;;3.05;51.47;95257.94;5074975;28;20209;-63
2022/01/28 09:13:10;;;;;;;47.20;42.08;;;;;;;3.06;52.06;95248.66;5075362;28;20621;-63
2022/01/28 09:15:38;;;;;;;41.80;37.42;;;;;;;3.07;51.84;95241.28;5075050;28;20281;-63
2022/01/28 09:18:05;;;;;;;42.65;38.20;;;;;;;3.13;52.20;95231.91;5075891;28;20187;-64
2022/01/28 09:20:35;;;;;;;43.03;38.53;;;;;;;3.12;51.72;95238.44;5075920;28;20188;-64
2022/01/28 09:23:02;;;;;;;42.97;38.30;;;;;;;2.96;52.39;95240.66;5075432;28;20177;-63
2022/01/28 09:25:29;;;;;;;42.97;38.38;;;;;;;2.94;51.20;95242.88;5075323;28;20601;-63
2022/01/28 09:27:56;;;;;;;44.28;39.60;;;;;;;2.94;52.15;95252.94;5074967;28;20199;-63
2022/01/28 09:30:23;;;;;;;46.38;40.75;;;;;;;2.89;52.65;95248.41;5074433;28;20217;-64
2022/01/28 09:32:49;;;;;;;54.25;48.50;;;;;;;2.82;52.45;95248.00;5075526;28;20208;-64
2022/01/28 09:35:16;;;;;;;59.67;53.42;;;;;;;2.76;52.54;95250.00;5075259;28;20196;-63
2022/01/28 09:37:44;;;;;;;35.90;32.10;;;;;;;2.80;52.77;95252.94;5074360;28;20215;-64
2022/01/28 09:40:13;;;;;;;26.63;23.90;;;;;;;2.84;52.34;95257.50;5075188;28;20177;-64
2022/01/28 09:42:42;;;;;;;24.17;21.60;;;;;;;2.83;52.34;95253.16;5075434;28;20193;-63
2022/01/28 09:45:10;;;;;;;24.02;21.50;;;;;;;2.83;52.02;95246.88;5074970;28;20521;-63
2022/01/28 09:47:37;;;;;;;23.10;20.48;;;;;;;2.81;52.08;95246.38;5073930;28;20244;-63
2022/01/28 09:50:05;;;;;;;26.00;23.40;;;;;;;2.76;51.88;95246.44;5073837;28;20217;-64
2022/01/28 09:52:33;;;;;;;27.08;21.90;;;;;;;2.77;51.89;95245.38;5075124;28;20185;-64
2022/01/28 09:55:01;;;;;;;27.60;24.63;;;;;;;2.75;52.30;95239.41;5074234;28;20262;-63
2022/01/28 09:57:28;;;;;;;29.35;25.23;;;;;;;2.73;52.10;95241.63;5075137;28;20196;-63
2022/01/28 09:59:55;;;;;;;31.52;27.90;;;;;;;2.73;52.52;95242.44;5074775;28;20435;-65
2022/01/28 10:02:22;;;;;;;32.40;29.13;;;;;;;2.73;53.59;95245.16;5074976;28;20189;-62
2022/01/28 10:04:48;;;;;;;34.42;30.67;;;;;;;2.79;53.81;95234.97;5074923;28;20195;-63
2022/01/28 10:07:17;;;;;;;38.13;33.67;;;;;;;2.81;53.41;95239.00;5073628;28;20202;-63
2022/01/28 10:09:55;;;;;;;42.65;38.13;;;;;;;2.79;53.34;95249.38;5075424;28;20182;-63
2022/01/28 10:12:32;;;;;;;44.05;39.45;;;;;;;2.79;53.94;95252.13;5078862;28;20262;-63
2022/01/28 10:15:03;;;;;;;41.83;37.45;;;;;;;2.80;53.85;95251.03;5078926;28;20233;-63
2022/01/28 10:17:52;;;;;;;44.42;39.60;;;;;;;2.82;54.35;95245.28;5078893;28;20193;-63
2022/01/28 10:20:19;;;;;;;42.63;37.90;;;;;;;2.84;54.45;95243.88;5078006;28;20193;-63
2022/01/28 10:22:57;;;;;;;41.78;37.25;;;;;;;2.85;53.90;95248.19;5078796;28;20212;-63
2022/01/28 10:25:26;;;;;;;40.45;36.17;;;;;;;2.85;54.91;95256.38;5078653;28;20262;-63
2022/01/28 10:28:02;;;;;;;42.85;38.03;;;;;;;2.87;54.93;95253.38;5077742;28;20197;-63
2022/01/28 10:30:29;;;;;;;41.88;37.53;;;;;;;2.87;54.26;95256.09;5078568;28;20287;-63
2022/01/28 10:33:14;;;;;;;38.97;34.88;;;;;;;2.88;55.08;95260.44;5079548;28;20185;-63
2022/01/28 10:35:49;;;;;;;37.00;33.15;;;;;;;2.91;55.10;95257.09;5077548;28;20200;-63
2022/01/28 10:38:28;;;;;;;35.75;32.13;;;;;;;2.93;54.99;95257.59;5078008;28;20188;-63
2022/01/28 10:41:10;;;;;;;31.35;28.02;;;;;;;2.95;54.05;95258.13;5078542;28;20193;-64
2022/01/28 10:43:46;;;;;;;31.77;28.15;;;;;;;2.99;54.57;95264.59;5078429;28;20181;-64
2022/01/28 10:46:13;;;;;;;34.88;31.35;;;;;;;3.07;54.15;95252.19;5077489;28;20188;-64
2022/01/28 10:48:53;;;;;;;64.90;53.60;;;;;;;3.16;54.42;95260.47;5076859;28;20244;-64
2022/01/28 10:51:21;;;;;;;63.20;55.60;;;;;;;3.22;54.16;95256.53;5078511;28;20205;-64
2022/01/28 10:54:03;;;;;;;65.90;55.35;;;;;;;3.25;53.69;95258.66;5077844;28;20196;-65
2022/01/28 10:56:30;;;;;;;62.33;55.70;;;;;;;3.26;53.49;95261.06;5077334;28;20550;-65
2022/01/28 10:58:58;;;;;;;58.22;52.10;;;;;;;3.29;53.42;95254.22;5078071;28;20196;-65
2022/01/28 11:01:26;;;;;;;57.50;50.58;;;;;;;3.31;53.43;95252.81;5077904;28;20178;-65
2022/01/28 11:03:55;;;;;;;57.80;51.58;;;;;;;3.31;53.91;95252.00;5076936;28;20258;-63
2022/01/28 11:06:22;;;;;;;59.53;53.13;;;;;;;3.34;53.06;95251.38;5077436;28;20197;-64
2022/01/28 11:08:49;;;;;;;56.58;50.78;;;;;;;3.32;53.14;95248.16;5077838;28;20185;-64
2022/01/28 11:11:16;;;;;;;37.15;33.40;;;;;;;3.36;52.52;95244.53;5077817;28;20209;-64
2022/01/28 11:13:43;;;;;;;44.13;39.20;;;;;;;3.46;52.94;95245.44;5076852;28;20197;-64
2022/01/28 11:16:12;;;;;;;41.60;37.33;;;;;;;3.53;52.79;95238.47;5076839;28;20617;-64
2022/01/28 11:18:39;;;;;;;37.08;33.28;;;;;;;3.65;52.94;95235.22;5077445;28;20196;-64
2022/01/28 11:21:13;;;;;;;36.60;32.60;;;;;;;3.76;52.40;95235.81;5076871;28;20188;-64
2022/01/28 11:23:48;;;;;;;39.47;35.22;;;;;;;3.88;53.61;95235.28;5077589;28;20208;-64
2022/01/28 11:26:18;;;;;;;41.35;36.88;;;;;;;3.94;54.97;95239.53;5077584;28;20272;-63
2022/01/28 11:28:46;;;;;;;41.72;37.30;;;;;;;3.95;54.99;95246.59;5077232;28;20181;-64
2022/01/28 11:31:15;;;;;;;18.60;16.83;;;;;;;4.00;52.85;95244.56;5077087;28;20633;-64
2022/01/28 11:33:45;;;;;;;9.13;8.32;;;;;;;4.16;52.83;95228.66;5077539;28;20189;-64
2022/01/28 11:36:11;;;;;;;8.20;6.97;;;;;;;4.27;53.76;95234.69;5077380;28;20189;-64
2022/01/28 11:38:44;;;;;;;6.53;5.82;;;;;;;4.38;53.44;95233.31;5077487;28;20181;-64
2022/01/28 11:41:14;;;;;;;5.75;5.25;;;;;;;4.46;53.98;95220.84;5076967;28;20193;-64
2022/01/28 11:43:46;;;;;;;6.63;5.93;;;;;;;4.54;54.01;95231.03;5076957;28;20185;-64
2022/01/28 11:46:20;;;;;;;7.90;7.20;;;;;;;4.63;54.38;95228.38;5077169;28;20196;-64
2022/01/28 11:49:16;;;;;;;7.85;7.05;;;;;;;4.72;54.07;95221.00;5075871;28;20225;-64
2022/01/28 11:51:43;;;;;;;6.72;6.03;;;;;;;4.74;53.22;95227.78;5070608;28;20240;-64
2022/01/28 11:54:12;;;;;;;7.53;6.82;;;;;;;4.82;52.76;95221.56;5077036;28;20562;-63
2022/01/28 11:56:40;;;;;;;9.48;7.82;;;;;;;4.88;52.49;95216.78;5076163;28;20585;-63
2022/01/28 11:59:08;;;;;;;7.88;6.80;;;;;;;4.95;52.59;95217.16;5077132;28;20186;-64
2022/01/28 12:02:10;;;;;;;8.68;7.32;;;;;;;5.03;52.31;95204.63;5076103;28;20189;-63
2022/01/28 12:04:39;;;;;;;8.00;7.18;;;;;;;5.09;51.54;95203.41;5076433;28;20250;-63
2022/01/28 12:07:09;;;;;;;7.78;7.07;;;;;;;5.13;52.16;95204.38;5075887;28;20215;-63
2022/01/28 12:09:37;;;;;;;7.22;6.50;;;;;;;5.18;52.51;95192.47;5076852;28;20177;-63
2022/01/28 12:12:08;;;;;;;7.32;6.63;;;;;;;5.22;52.45;95199.72;5076557;28;20201;-63
2022/01/28 12:15:05;;;;;;;7.20;6.45;;;;;;;5.25;53.00;95195.56;5076563;28;20197;-64